Time;durP1;ratioP1;P1;durP2;ratioP2;P2;SDS_P1;SDS_P2;PMS_P1;PMS_P2;Temp;Humidity;BMP_temperature;BMP_pressure;BME280_temperature;BME280_humidity;BME280_pressure;Samples;Min_cycle;Max_cycle;Signal;HPM_P1;HPM_P2
2023/01/23 00:00:19;;;;;;;17.25;13.40;;;;;;;;;;5176762;28;20054;-76
2023/01/23 00:02:50;;;;;;;19.88;13.98;;;;;;;;;;5175854;28;20414;-76
2023/01/23 00:05:22;;;;;;;21.67;14.93;;;;;;;;;;5177499;28;20033;-76
2023/01/23 00:07:53;;;;;;;17.13;13.57;;;;;;;;;;5176776;28;20030;-76
2023/01/23 00:10:24;;;;;;;18.87;14.10;;;;;;;;;;5179095;28;20079;-76
2023/01/23 00:12:56;;;;;;;19.05;14.63;;;;;;;;;;5181058;28;20023;-76
2023/01/23 00:15:27;;;;;;;17.13;13.83;;;;;;;;;;5175963;28;20095;-76
2023/01/23 00:17:58;;;;;;;18.90;14.40;;;;;;;;;;5177481;28;20011;-76
2023/01/23 00:20:30;;;;;;;19.10;13.32;;;;;;;;;;5176837;28;20026;-76
2023/01/23 00:23:01;;;;;;;18.85;14.60;;;;;;;;;;5176443;28;20435;-75
2023/01/23 00:25:33;;;;;;;16.02;12.40;;;;;;;;;;5176883;28;20108;-76
2023/01/23 00:28:04;;;;;;;18.30;14.45;;;;;;;;;;5176175;28;20429;-75
2023/01/23 00:30:35;;;;;;;21.27;14.50;;;;;;;;;;5176746;28;20461;-75
2023/01/23 00:33:07;;;;;;;20.67;15.05;;;;;;;;;;5177073;28;20098;-75
2023/01/23 00:35:38;;;;;;;18.20;14.90;;;;;;;;;;5176032;28;20043;-75
2023/01/23 00:38:09;;;;;;;19.60;13.50;;;;;;;;;;5176778;28;20018;-76
2023/01/23 00:40:41;;;;;;;16.90;13.10;;;;;;;;;;5176860;28;20126;-76
2023/01/23 00:43:13;;;;;;;18.10;13.98;;;;;;;;;;5176127;28;20452;-76
2023/01/23 00:45:44;;;;;;;18.77;13.30;;;;;;;;;;5176635;28;20105;-76
2023/01/23 00:48:15;;;;;;;16.98;13.52;;;;;;;;;;5176871;28;20023;-76
2023/01/23 00:50:47;;;;;;;14.98;13.05;;;;;;;;;;5175964;28;20023;-76
2023/01/23 00:53:18;;;;;;;18.27;13.43;;;;;;;;;;5176471;28;20194;-76
2023/01/23 00:55:50;;;;;;;15.70;12.57;;;;;;;;;;5176057;28;20489;-77
2023/01/23 00:58:21;;;;;;;18.08;13.43;;;;;;;;;;5176174;28;20033;-76
2023/01/23 01:00:52;;;;;;;16.90;13.02;;;;;;;;;;5176448;28;20030;-76
2023/01/23 01:03:24;;;;;;;16.63;13.73;;;;;;;;;;5175485;28;20050;-76
2023/01/23 01:05:55;;;;;;;19.17;14.23;;;;;;;;;;5176940;28;20366;-76
2023/01/23 01:08:26;;;;;;;16.57;14.13;;;;;;;;;;5176189;28;20463;-76
2023/01/23 01:10:57;;;;;;;18.40;13.43;;;;;;;;;;5176053;28;20474;-76
2023/01/23 01:13:29;;;;;;;16.13;13.18;;;;;;;;;;5175861;28;20065;-76
2023/01/23 01:16:00;;;;;;;17.58;13.98;;;;;;;;;;5176225;28;20023;-76
2023/01/23 01:18:32;;;;;;;16.92;13.55;;;;;;;;;;5175645;28;20097;-76
2023/01/23 01:21:10;;;;;;;15.90;12.32;;;;;;;;;;5176447;28;20027;-76
2023/01/23 01:23:41;;;;;;;15.85;13.32;;;;;;;;;;5176090;28;20019;-78
2023/01/23 01:26:12;;;;;;;16.60;13.02;;;;;;;;;;5175308;28;20045;-75
2023/01/23 01:28:44;;;;;;;16.27;12.75;;;;;;;;;;5176285;28;20015;-76
2023/01/23 01:31:15;;;;;;;16.80;12.60;;;;;;;;;;5175081;28;20030;-75
2023/01/23 01:33:47;;;;;;;17.50;12.70;;;;;;;;;;5176034;28;20404;-76
2023/01/23 01:36:18;;;;;;;16.33;12.57;;;;;;;;;;5175824;28;20130;-76
2023/01/23 01:38:50;;;;;;;15.20;11.65;;;;;;;;;;5175126;28;20527;-76
2023/01/23 01:41:21;;;;;;;17.75;13.30;;;;;;;;;;5175970;28;20462;-75
2023/01/23 01:43:55;;;;;;;18.35;13.25;;;;;;;;;;5176029;28;20416;-75
2023/01/23 01:46:28;;;;;;;15.82;12.93;;;;;;;;;;5176998;28;20462;-76
2023/01/23 01:49:11;;;;;;;19.02;13.50;;;;;;;;;;5177900;28;20482;-77
2023/01/23 01:51:42;;;;;;;16.92;13.90;;;;;;;;;;5176153;28;20439;-77
2023/01/23 01:54:17;;;;;;;20.04;12.76;;;;;;;;;;5175455;28;20088;-76
2023/01/23 01:56:53;;;;;;;17.30;14.25;;;;;;;;;;5175578;28;20045;-77
2023/01/23 01:59:26;;;;;;;18.03;13.03;;;;;;;;;;5174521;28;20382;-76
2023/01/23 02:02:03;;;;;;;16.13;13.57;;;;;;;;;;5176804;28;20081;-76
2023/01/23 02:04:37;;;;;;;19.10;12.67;;;;;;;;;;5179094;28;20026;-76
2023/01/23 02:07:14;;;;;;;19.33;14.20;;;;;;;;;;5178037;28;20118;-76
2023/01/23 02:09:45;;;;;;;17.83;13.48;;;;;;;;;;5179231;28;20029;-76
2023/01/23 02:12:17;;;;;;;19.27;13.68;;;;;;;;;;5179155;28;20023;-76
2023/01/23 02:14:48;;;;;;;18.77;13.67;;;;;;;;;;5178250;28;20035;-76
2023/01/23 02:17:19;;;;;;;16.93;13.00;;;;;;;;;;5178855;28;20031;-76
2023/01/23 02:19:58;;;;;;;16.88;13.07;;;;;;;;;;5178930;28;20022;-76
2023/01/23 02:22:35;;;;;;;21.58;14.77;;;;;;;;;;5177801;28;20042;-76
2023/01/23 02:25:33;;;;;;;20.10;14.40;;;;;;;;;;5178992;28;20027;-76
2023/01/23 02:28:06;;;;;;;20.60;13.80;;;;;;;;;;5155401;28;20030;-76
2023/01/23 02:30:38;;;;;;;19.07;13.67;;;;;;;;;;5178720;28;20026;-75
2023/01/23 02:33:11;;;;;;;18.23;13.40;;;;;;;;;;5179942;28;20110;-76
2023/01/23 02:35:42;;;;;;;22.00;15.10;;;;;;;;;;5181570;28;20041;-76
2023/01/23 02:38:13;;;;;;;17.77;13.00;;;;;;;;;;5179174;28;20015;-76
2023/01/23 02:40:45;;;;;;;17.73;12.45;;;;;;;;;;5178591;28;20075;-76
2023/01/23 02:43:18;;;;;;;23.33;14.50;;;;;;;;;;5177715;28;20019;-76
2023/01/23 02:45:50;;;;;;;19.70;13.93;;;;;;;;;;5178431;28;20030;-76
2023/01/23 02:48:22;;;;;;;20.23;14.20;;;;;;;;;;5178232;28;20034;-76
2023/01/23 02:50:53;;;;;;;18.70;13.27;;;;;;;;;;5178399;28;20027;-76
2023/01/23 02:53:24;;;;;;;20.00;13.10;;;;;;;;;;5178234;28;20058;-77
2023/01/23 02:55:57;;;;;;;16.57;13.33;;;;;;;;;;5177783;28;20216;-77
2023/01/23 03:01:18;;;;;;;20.73;13.40;;;;;;;;;;5178396;28;20390;-76
2023/01/23 03:03:52;;;;;;;17.33;13.50;;;;;;;;;;5177427;28;20043;-76
2023/01/23 03:06:23;;;;;;;17.57;12.80;;;;;;;;;;5177886;28;20015;-76
2023/01/23 03:08:54;;;;;;;18.83;13.83;;;;;;;;;;5178636;28;20028;-76
2023/01/23 03:11:26;;;;;;;21.80;14.13;;;;;;;;;;5177061;28;20019;-76
2023/01/23 03:13:57;;;;;;;20.80;14.07;;;;;;;;;;5177150;28;20458;-77
2023/01/23 03:16:28;;;;;;;17.90;14.33;;;;;;;;;;5177470;28;20035;-75
2023/01/23 03:19:03;;;;;;;17.20;13.33;;;;;;;;;;5177225;28;20042;-76
2023/01/23 03:21:39;;;;;;;16.00;12.83;;;;;;;;;;5180949;28;20018;-74
2023/01/23 03:24:11;;;;;;;19.27;13.73;;;;;;;;;;5180071;28;20042;-76
2023/01/23 03:26:43;;;;;;;20.05;14.63;;;;;;;;;;5178537;28;20387;-76
2023/01/23 03:32:05;;;;;;;16.23;12.27;;;;;;;;;;5177480;28;20027;-76
2023/01/23 03:34:37;;;;;;;22.00;14.90;;;;;;;;;;5177588;28;20023;-76
2023/01/23 03:37:09;;;;;;;18.97;13.90;;;;;;;;;;5177539;28;20015;-75
2023/01/23 03:42:32;;;;;;;16.37;13.00;;;;;;;;;;5177699;28;20030;-76
2023/01/23 03:45:04;;;;;;;19.57;13.77;;;;;;;;;;5176877;28;20019;-76
2023/01/23 03:47:35;;;;;;;20.85;13.75;;;;;;;;;;5177335;28;20025;-76
2023/01/23 03:50:06;;;;;;;19.87;15.13;;;;;;;;;;5177640;28;20023;-76
2023/01/23 03:52:38;;;;;;;18.90;14.10;;;;;;;;;;5176726;28;20034;-77
2023/01/23 03:55:09;;;;;;;23.70;14.43;;;;;;;;;;5177439;28;20027;-76
2023/01/23 03:57:40;;;;;;;19.33;13.57;;;;;;;;;;5177562;28;20026;-76
2023/01/23 04:00:12;;;;;;;18.43;13.80;;;;;;;;;;5176544;28;20129;-76
2023/01/23 04:02:43;;;;;;;18.08;13.43;;;;;;;;;;5176839;28;20055;-76
2023/01/23 04:05:15;;;;;;;15.98;12.75;;;;;;;;;;5177383;28;20023;-76
2023/01/23 04:07:46;;;;;;;20.87;14.20;;;;;;;;;;5176501;28;20027;-76
2023/01/23 04:10:17;;;;;;;22.65;15.45;;;;;;;;;;5177698;28;20110;-76
2023/01/23 04:12:48;;;;;;;21.53;14.57;;;;;;;;;;5176535;28;20077;-77
2023/01/23 04:15:19;;;;;;;19.45;14.68;;;;;;;;;;5177270;28;20048;-76
2023/01/23 04:17:51;;;;;;;17.83;13.27;;;;;;;;;;5177101;28;20019;-76
2023/01/23 04:20:22;;;;;;;20.52;14.40;;;;;;;;;;5176298;28;20026;-76
2023/01/23 04:22:53;;;;;;;19.27;13.73;;;;;;;;;;5176924;28;20069;-76
2023/01/23 04:25:24;;;;;;;19.27;14.27;;;;;;;;;;5176220;28;20462;-77
2023/01/23 04:27:55;;;;;;;17.70;13.47;;;;;;;;;;5176684;28;20046;-76
2023/01/23 04:30:27;;;;;;;18.53;13.97;;;;;;;;;;5176635;28;20030;-76
2023/01/23 04:32:58;;;;;;;18.30;14.20;;;;;;;;;;5177030;28;20080;-76
2023/01/23 04:35:30;;;;;;;17.63;12.93;;;;;;;;;;5175679;28;20041;-76
2023/01/23 04:38:01;;;;;;;19.50;15.03;;;;;;;;;;5176785;28;20023;-75
2023/01/23 04:40:32;;;;;;;17.87;13.27;;;;;;;;;;5177025;28;20019;-76
2023/01/23 04:43:03;;;;;;;19.00;13.90;;;;;;;;;;5176170;28;20154;-76
2023/01/23 04:45:35;;;;;;;22.03;14.03;;;;;;;;;;5176653;28;20019;-77
2023/01/23 04:48:07;;;;;;;20.40;16.20;;;;;;;;;;5175839;28;20061;-76
2023/01/23 04:50:38;;;;;;;21.60;15.50;;;;;;;;;;5177099;28;20042;-78
2023/01/23 04:53:10;;;;;;;18.63;14.02;;;;;;;;;;5176898;28;20063;-77
2023/01/23 04:55:41;;;;;;;18.93;14.40;;;;;;;;;;5183933;28;20121;-76
2023/01/23 04:58:12;;;;;;;19.47;13.77;;;;;;;;;;5181676;28;20105;-76
2023/01/23 05:00:43;;;;;;;20.30;15.03;;;;;;;;;;5176549;28;20104;-77
2023/01/23 05:03:15;;;;;;;19.15;14.70;;;;;;;;;;5175684;28;20047;-77
2023/01/23 05:05:46;;;;;;;19.93;15.07;;;;;;;;;;5176384;28;20042;-77
2023/01/23 05:08:17;;;;;;;19.05;14.48;;;;;;;;;;5176392;28;20090;-77
2023/01/23 05:10:48;;;;;;;20.85;14.63;;;;;;;;;;5175496;28;20030;-77
2023/01/23 05:13:20;;;;;;;23.37;16.13;;;;;;;;;;5176216;28;20057;-78
2023/01/23 05:15:51;;;;;;;18.53;14.90;;;;;;;;;;5176213;28;20037;-77
2023/01/23 05:18:22;;;;;;;22.67;15.83;;;;;;;;;;5175412;28;20030;-77
2023/01/23 05:20:53;;;;;;;21.33;14.67;;;;;;;;;;5176184;28;20442;-77
2023/01/23 05:23:24;;;;;;;17.87;13.23;;;;;;;;;;5175134;28;20067;-77
2023/01/23 05:25:55;;;;;;;24.08;15.63;;;;;;;;;;5176682;28;20080;-78
2023/01/23 05:28:27;;;;;;;19.70;16.00;;;;;;;;;;5175637;28;20030;-78
2023/01/23 05:30:58;;;;;;;19.50;14.93;;;;;;;;;;5175708;28;20451;-78
2023/01/23 05:33:29;;;;;;;20.73;14.77;;;;;;;;;;5175861;28;20523;-78
2023/01/23 05:36:00;;;;;;;23.37;15.57;;;;;;;;;;5175976;28;20122;-77
2023/01/23 05:38:31;;;;;;;21.37;15.40;;;;;;;;;;5178663;28;20029;-78
2023/01/23 05:41:03;;;;;;;21.02;15.35;;;;;;;;;;5179867;28;20031;-77
2023/01/23 05:43:34;;;;;;;18.60;14.45;;;;;;;;;;5189418;28;20041;-76
2023/01/23 05:46:05;;;;;;;18.63;14.80;;;;;;;;;;5183386;28;20015;-78
2023/01/23 05:48:38;;;;;;;21.25;14.73;;;;;;;;;;5179490;28;20022;-77
2023/01/23 05:51:09;;;;;;;21.80;16.50;;;;;;;;;;5179520;28;20332;-77
2023/01/23 05:53:40;;;;;;;19.92;15.55;;;;;;;;;;5178624;28;20041;-77
2023/01/23 05:56:13;;;;;;;26.17;17.53;;;;;;;;;;5179318;28;20466;-77
2023/01/23 05:58:44;;;;;;;20.03;15.33;;;;;;;;;;5178767;28;20110;-77
2023/01/23 06:01:15;;;;;;;23.15;16.05;;;;;;;;;;5179124;28;20098;-77
2023/01/23 06:03:46;;;;;;;18.52;14.48;;;;;;;;;;5179155;28;20072;-77
2023/01/23 06:06:18;;;;;;;21.00;15.93;;;;;;;;;;5178481;28;20449;-77
2023/01/23 06:08:49;;;;;;;19.40;14.50;;;;;;;;;;5179106;28;20075;-77
2023/01/23 06:11:20;;;;;;;22.70;16.33;;;;;;;;;;5178867;28;20030;-77
2023/01/23 06:13:51;;;;;;;20.47;16.00;;;;;;;;;;5178627;28;20019;-77
2023/01/23 06:16:22;;;;;;;22.65;16.13;;;;;;;;;;5179186;28;20038;-77
2023/01/23 06:18:54;;;;;;;21.63;15.87;;;;;;;;;;5179386;28;20026;-77
2023/01/23 06:21:25;;;;;;;22.30;16.42;;;;;;;;;;5178050;28;20066;-77
2023/01/23 06:23:57;;;;;;;21.98;16.20;;;;;;;;;;5179204;28;20423;-77
2023/01/23 06:26:29;;;;;;;22.03;16.83;;;;;;;;;;5178159;28;20030;-77
2023/01/23 06:29:00;;;;;;;21.70;16.25;;;;;;;;;;5180141;28;20019;-76
2023/01/23 06:31:31;;;;;;;22.47;15.43;;;;;;;;;;5184027;28;20427;-77
2023/01/23 06:34:02;;;;;;;24.13;16.75;;;;;;;;;;5180368;28;20026;-77
2023/01/23 06:36:33;;;;;;;23.20;16.40;;;;;;;;;;5178638;28;20062;-77
2023/01/23 06:39:05;;;;;;;20.25;15.10;;;;;;;;;;5178822;28;20027;-77
2023/01/23 06:41:36;;;;;;;22.13;15.43;;;;;;;;;;5178410;28;20023;-77
2023/01/23 06:44:07;;;;;;;18.08;14.95;;;;;;;;;;5178661;28;20038;-77
2023/01/23 06:46:38;;;;;;;20.03;16.20;;;;;;;;;;5178714;28;20098;-77
2023/01/23 06:49:10;;;;;;;22.50;16.67;;;;;;;;;;5177658;28;20023;-77
2023/01/23 06:51:41;;;;;;;23.03;16.83;;;;;;;;;;5178580;28;20068;-77
2023/01/23 06:54:12;;;;;;;21.58;16.85;;;;;;;;;;5178813;28;20529;-77
2023/01/23 06:56:43;;;;;;;23.17;16.20;;;;;;;;;;5177693;28;20058;-77
2023/01/23 06:59:14;;;;;;;21.92;15.70;;;;;;;;;;5178227;28;20026;-77
2023/01/23 07:01:45;;;;;;;20.50;15.55;;;;;;;;;;5177512;28;20053;-77
2023/01/23 07:04:17;;;;;;;19.27;14.60;;;;;;;;;;5178483;28;20023;-76
2023/01/23 07:06:48;;;;;;;20.03;15.37;;;;;;;;;;5178306;28;20015;-76
2023/01/23 07:09:19;;;;;;;19.10;14.90;;;;;;;;;;5177546;28;20015;-76
2023/01/23 07:11:50;;;;;;;22.13;16.93;;;;;;;;;;5178362;28;20581;-78
2023/01/23 07:14:21;;;;;;;20.57;16.03;;;;;;;;;;5178310;28;20043;-76
2023/01/23 07:16:53;;;;;;;18.27;15.30;;;;;;;;;;5177228;28;20039;-76
2023/01/23 07:19:25;;;;;;;21.37;16.27;;;;;;;;;;5177824;28;20137;-77
2023/01/23 07:21:56;;;;;;;22.47;16.37;;;;;;;;;;5178262;28;20027;-77
2023/01/23 07:24:30;;;;;;;19.63;15.30;;;;;;;;;;5176708;28;20019;-76
2023/01/23 07:27:01;;;;;;;24.37;18.57;;;;;;;;;;5177909;28;20473;-75
2023/01/23 07:29:33;;;;;;;26.30;20.83;;;;;;;;;;5177810;28;20034;-75
2023/01/23 07:32:04;;;;;;;27.33;19.92;;;;;;;;;;5176946;28;20098;-75
2023/01/23 07:34:35;;;;;;;20.73;16.27;;;;;;;;;;5177401;28;20027;-75
2023/01/23 07:37:07;;;;;;;21.15;16.30;;;;;;;;;;5176418;28;20039;-78
2023/01/23 07:39:38;;;;;;;20.30;16.17;;;;;;;;;;5177355;28;20026;-77
2023/01/23 07:42:09;;;;;;;20.75;16.30;;;;;;;;;;5177478;28;20027;-76
2023/01/23 07:44:40;;;;;;;19.83;15.88;;;;;;;;;;5176842;28;20446;-76
2023/01/23 07:47:11;;;;;;;19.13;15.80;;;;;;;;;;5177565;28;20059;-76
2023/01/23 07:49:42;;;;;;;20.65;16.15;;;;;;;;;;5177317;28;20030;-76
2023/01/23 07:52:14;;;;;;;21.70;17.40;;;;;;;;;;5176706;28;20519;-75
2023/01/23 07:54:45;;;;;;;23.40;16.90;;;;;;;;;;5177390;28;20056;-76
2023/01/23 07:57:16;;;;;;;21.44;17.24;;;;;;;;;;5177616;28;20038;-76
2023/01/23 07:59:47;;;;;;;22.13;17.57;;;;;;;;;;5175691;28;20065;-76
2023/01/23 08:02:18;;;;;;;21.88;16.75;;;;;;;;;;5177666;28;20563;-76
2023/01/23 08:04:50;;;;;;;16.83;14.87;;;;;;;;;;5181253;28;20027;-75
2023/01/23 08:07:21;;;;;;;21.50;17.40;;;;;;;;;;5177936;28;20019;-77
2023/01/23 08:09:52;;;;;;;20.43;15.60;;;;;;;;;;5177920;28;20023;-76
2023/01/23 08:12:23;;;;;;;19.50;15.63;;;;;;;;;;5176024;28;20041;-76
2023/01/23 08:14:54;;;;;;;18.05;14.73;;;;;;;;;;5177282;28;20403;-75
2023/01/23 08:17:26;;;;;;;24.20;16.30;;;;;;;;;;5176780;28;20439;-75
2023/01/23 08:19:57;;;;;;;19.38;14.95;;;;;;;;;;5176627;28;20096;-74
2023/01/23 08:22:28;;;;;;;17.78;15.26;;;;;;;;;;5175839;28;20022;-75
2023/01/23 08:24:59;;;;;;;24.45;17.60;;;;;;;;;;5195445;28;20076;-74
2023/01/23 08:27:30;;;;;;;19.67;15.80;;;;;;;;;;5196344;28;20029;-74
2023/01/23 08:30:02;;;;;;;20.38;15.45;;;;;;;;;;5196987;28;20042;-78
2023/01/23 08:32:34;;;;;;;23.48;17.20;;;;;;;;;;5196864;28;20411;-73
2023/01/23 08:35:05;;;;;;;21.90;16.70;;;;;;;;;;5196504;28;20031;-74
2023/01/23 08:37:37;;;;;;;21.42;17.48;;;;;;;;;;5194926;28;20030;-74
2023/01/23 08:40:08;;;;;;;26.80;19.23;;;;;;;;;;5194041;28;20022;-74
2023/01/23 08:42:40;;;;;;;28.15;19.50;;;;;;;;;;5194417;28;20018;-74
2023/01/23 08:45:11;;;;;;;23.83;19.40;;;;;;;;;;5194856;28;20398;-74
2023/01/23 08:47:42;;;;;;;24.65;17.88;;;;;;;;;;5193544;28;20117;-74
2023/01/23 08:50:13;;;;;;;24.02;16.80;;;;;;;;;;5194968;28;20031;-74
2023/01/23 08:52:44;;;;;;;19.35;15.88;;;;;;;;;;5195913;28;20050;-74
2023/01/23 08:55:16;;;;;;;21.55;16.25;;;;;;;;;;5196161;28;20493;-74
2023/01/23 08:57:47;;;;;;;21.27;16.65;;;;;;;;;;5196706;28;20109;-74
2023/01/23 09:00:18;;;;;;;20.45;15.23;;;;;;;;;;5196334;28;20470;-74
2023/01/23 09:02:50;;;;;;;20.23;16.17;;;;;;;;;;5195498;28;20052;-74
2023/01/23 09:05:21;;;;;;;22.25;14.93;;;;;;;;;;5196343;28;20026;-74
2023/01/23 09:07:52;;;;;;;21.38;16.58;;;;;;;;;;5195987;28;20022;-73
2023/01/23 09:10:24;;;;;;;22.23;16.70;;;;;;;;;;5194541;28;20060;-74
2023/01/23 09:12:56;;;;;;;20.15;15.85;;;;;;;;;;5194555;28;20022;-74
2023/01/23 09:15:27;;;;;;;20.77;16.38;;;;;;;;;;5193685;28;20083;-74
2023/01/23 09:17:58;;;;;;;21.80;16.60;;;;;;;;;;5194836;28;20014;-75
2023/01/23 09:20:30;;;;;;;20.45;16.05;;;;;;;;;;5194982;28;20087;-74
2023/01/23 09:23:01;;;;;;;20.88;16.58;;;;;;;;;;5194357;28;20374;-74
2023/01/23 09:25:32;;;;;;;20.67;16.00;;;;;;;;;;5195866;28;20037;-75
2023/01/23 09:28:03;;;;;;;17.33;14.65;;;;;;;;;;5195716;28;20139;-74
2023/01/23 09:30:35;;;;;;;18.77;15.60;;;;;;;;;;5193074;28;20026;-73
2023/01/23 09:33:07;;;;;;;21.27;16.33;;;;;;;;;;5193973;28;20367;-74
2023/01/23 09:35:38;;;;;;;22.42;15.95;;;;;;;;;;5193945;28;20041;-73
2023/01/23 09:38:09;;;;;;;18.35;15.15;;;;;;;;;;5192918;28;20027;-73
2023/01/23 09:40:50;;;;;;;19.60;14.45;;;;;;;;;;5183533;28;20019;-73
2023/01/23 09:43:31;;;;;;;23.50;16.63;;;;;;;;;;5184146;28;20019;-74
2023/01/23 09:46:23;;;;;;;18.40;14.90;;;;;;;;;;5183251;28;20034;-73
2023/01/23 09:49:00;;;;;;;20.05;16.58;;;;;;;;;;5175633;28;20019;-74
2023/01/23 09:51:51;;;;;;;20.90;15.02;;;;;;;;;;5174709;28;20077;-74
2023/01/23 09:54:31;;;;;;;20.63;15.63;;;;;;;;;;5175448;28;20392;-76
2023/01/23 09:57:11;;;;;;;18.88;15.18;;;;;;;;;;5175532;28;20424;-74
2023/01/23 09:59:45;;;;;;;21.60;16.05;;;;;;;;;;5175079;28;20054;-74
2023/01/23 10:02:18;;;;;;;19.50;15.32;;;;;;;;;;5175332;28;20047;-74
2023/01/23 10:04:50;;;;;;;20.45;14.88;;;;;;;;;;5174579;28;20058;-74
2023/01/23 10:07:30;;;;;;;22.17;15.98;;;;;;;;;;5175473;28;20047;-73
2023/01/23 10:10:13;;;;;;;21.45;16.20;;;;;;;;;;5175100;28;20480;-74
2023/01/23 10:12:53;;;;;;;19.15;15.52;;;;;;;;;;5174513;28;20054;-74
2023/01/23 10:15:32;;;;;;;17.00;13.95;;;;;;;;;;5175172;28;20038;-74
2023/01/23 10:18:24;;;;;;;19.90;14.77;;;;;;;;;;5175404;28;20470;-74
2023/01/23 10:21:04;;;;;;;16.80;14.60;;;;;;;;;;5174645;28;20503;-73
2023/01/23 10:23:59;;;;;;;17.02;14.23;;;;;;;;;;5176665;28;20033;-73
2023/01/23 10:26:35;;;;;;;17.40;14.55;;;;;;;;;;5195987;28;20026;-72
2023/01/23 10:29:38;;;;;;;18.10;14.98;;;;;;;;;;5178313;28;20015;-72
2023/01/23 10:32:29;;;;;;;18.67;14.73;;;;;;;;;;5200408;28;20095;-72
2023/01/23 10:35:12;;;;;;;18.50;14.55;;;;;;;;;;5177840;28;20019;-72
2023/01/23 10:38:00;;;;;;;16.77;13.77;;;;;;;;;;5178462;28;20461;-74
2023/01/23 10:43:21;;;;;;;19.35;14.57;;;;;;;;;;5178422;28;20031;-73
2023/01/23 10:45:52;;;;;;;18.17;14.85;;;;;;;;;;5178358;28;20359;-71
2023/01/23 10:48:39;;;;;;;23.66;16.24;;;;;;;;;;5177251;28;20018;-72
2023/01/23 10:51:22;;;;;;;21.58;15.18;;;;;;;;;;5178197;28;20031;-72
2023/01/23 10:54:04;;;;;;;17.65;14.05;;;;;;;;;;5177664;28;20023;-72
2023/01/23 10:56:38;;;;;;;17.17;14.48;;;;;;;;;;5178091;28;20034;-72
2023/01/23 10:59:17;;;;;;;21.67;15.27;;;;;;;;;;5177949;28;20080;-72
2023/01/23 11:01:48;;;;;;;;;;;;;;;;;;5177731;28;20561;-72
2023/01/23 11:04:22;;;;;;;18.00;14.98;;;;;;;;;;5178114;28;20028;-72
2023/01/23 11:07:01;;;;;;;18.75;14.73;;;;;;;;;;5178042;28;20319;-72
2023/01/23 11:09:38;;;;;;;19.00;14.98;;;;;;;;;;5177044;28;20026;-71
2023/01/23 11:12:13;;;;;;;21.10;15.23;;;;;;;;;;5177836;28;20080;-72
2023/01/23 11:14:45;;;;;;;19.50;15.18;;;;;;;;;;5177713;28;20072;-70
2023/01/23 11:17:20;;;;;;;20.70;15.32;;;;;;;;;;5177228;28;20035;-70
2023/01/23 11:19:53;;;;;;;17.88;14.40;;;;;;;;;;5177644;28;20042;-70
2023/01/23 11:22:38;;;;;;;19.77;14.05;;;;;;;;;;5176766;28;20026;-73
2023/01/23 11:25:28;;;;;;;17.00;13.25;;;;;;;;;;5177661;28;20019;-71
2023/01/23 11:28:00;;;;;;;16.20;13.00;;;;;;;;;;5177676;28;20072;-71
2023/01/23 11:30:44;;;;;;;15.57;12.77;;;;;;;;;;5177034;28;20122;-71
2023/01/23 11:33:24;;;;;;;18.02;14.32;;;;;;;;;;5177655;28;20482;-70
2023/01/23 11:36:21;;;;;;;18.10;13.80;;;;;;;;;;5175832;28;20113;-71
2023/01/23 11:39:02;;;;;;;15.15;11.80;;;;;;;;;;5177370;28;20066;-71
2023/01/23 11:41:34;;;;;;;14.35;11.95;;;;;;;;;;5177527;28;20027;-71
2023/01/23 11:44:14;;;;;;;14.68;13.02;;;;;;;;;;5176673;28;20440;-71
2023/01/23 11:47:04;;;;;;;16.50;12.48;;;;;;;;;;5176946;28;20026;-71
2023/01/23 11:49:47;;;;;;;15.27;12.23;;;;;;;;;;5177385;28;20113;-71
2023/01/23 11:52:19;;;;;;;16.25;11.98;;;;;;;;;;5176829;28;20030;-72
2023/01/23 11:54:59;;;;;;;16.88;13.25;;;;;;;;;;5176650;28;20030;-72
2023/01/23 11:57:33;;;;;;;14.35;12.32;;;;;;;;;;5176061;28;20113;-72
2023/01/23 12:00:30;;;;;;;17.88;12.98;;;;;;;;;;5176936;28;20111;-71
2023/01/23 12:03:20;;;;;;;16.52;12.65;;;;;;;;;;5177022;28;20051;-71
2023/01/23 12:06:01;;;;;;;13.45;11.90;;;;;;;;;;5175960;28;20403;-72
2023/01/23 12:08:39;;;;;;;17.00;13.55;;;;;;;;;;5176414;28;20023;-70
2023/01/23 12:11:18;;;;;;;15.40;13.25;;;;;;;;;;5175944;28;20029;-73
2023/01/23 12:14:08;;;;;;;14.90;12.45;;;;;;;;;;5175173;28;20022;-72
2023/01/23 12:16:58;;;;;;;16.65;13.15;;;;;;;;;;5176111;28;20216;-73
2023/01/23 12:19:35;;;;;;;14.65;11.68;;;;;;;;;;5175491;28;20026;-69
2023/01/23 12:22:14;;;;;;;14.98;11.50;;;;;;;;;;5175148;28;20031;-72
2023/01/23 12:25:00;;;;;;;14.05;12.40;;;;;;;;;;5175363;28;20473;-73
2023/01/23 12:27:45;;;;;;;15.52;12.43;;;;;;;;;;5175868;28;20026;-72
2023/01/23 12:30:45;;;;;;;13.40;11.13;;;;;;;;;;5176471;28;20102;-73
2023/01/23 12:33:25;;;;;;;14.90;11.95;;;;;;;;;;5162601;28;20037;-74
2023/01/23 12:36:20;;;;;;;16.10;12.75;;;;;;;;;;5176801;28;20042;-74
2023/01/23 12:38:54;;;;;;;14.13;11.95;;;;;;;;;;5148834;28;20027;-74
2023/01/23 12:41:27;;;;;;;14.27;12.13;;;;;;;;;;5175499;28;20022;-74
2023/01/23 12:44:03;;;;;;;13.85;11.40;;;;;;;;;;5176875;28;20037;-73
2023/01/23 12:46:49;;;;;;;16.92;12.70;;;;;;;;;;5175041;28;20380;-73
2023/01/23 12:49:29;;;;;;;12.00;10.63;;;;;;;;;;5176382;28;20410;-73
2023/01/23 12:52:05;;;;;;;13.65;11.32;;;;;;;;;;5176475;28;20011;-73
2023/01/23 12:54:45;;;;;;;13.80;11.35;;;;;;;;;;5175638;28;20419;-72
2023/01/23 12:57:38;;;;;;;14.85;10.95;;;;;;;;;;5175765;28;20034;-74
2023/01/23 13:00:11;;;;;;;13.88;11.30;;;;;;;;;;5176180;28;20110;-74
2023/01/23 13:03:01;;;;;;;13.95;11.57;;;;;;;;;;5175087;28;20567;-74
2023/01/23 13:05:35;;;;;;;15.45;12.02;;;;;;;;;;5176304;28;20039;-74
2023/01/23 13:08:06;;;;;;;15.07;12.10;;;;;;;;;;5175183;28;20023;-73
2023/01/23 13:13:38;;;;;;;15.23;12.00;;;;;;;;;;5176249;28;20026;-73
2023/01/23 13:16:10;;;;;;;19.77;13.68;;;;;;;;;;5175096;28;20038;-73
2023/01/23 13:22:02;;;;;;;16.70;13.05;;;;;;;;;;5169978;28;20035;-74
2023/01/23 13:27:45;;;;;;;14.18;11.98;;;;;;;;;;5175978;28;20481;-74
2023/01/23 13:30:30;;;;;;;15.60;12.00;;;;;;;;;;5175000;28;20027;-73
2023/01/23 13:33:04;;;;;;;16.17;12.20;;;;;;;;;;5175588;28;20030;-73
2023/01/23 13:35:38;;;;;;;15.98;12.30;;;;;;;;;;5174965;28;20039;-74
2023/01/23 13:38:21;;;;;;;14.93;12.45;;;;;;;;;;5175719;28;20031;-74
2023/01/23 13:41:07;;;;;;;15.90;12.23;;;;;;;;;;5175593;28;20027;-73
2023/01/23 13:43:57;;;;;;;15.90;12.52;;;;;;;;;;5174903;28;20027;-74
2023/01/23 13:46:28;;;;;;;14.95;13.10;;;;;;;;;;5175513;28;20053;-74
2023/01/23 13:51:57;;;;;;;14.02;11.45;;;;;;;;;;5175139;28;20066;-73
2023/01/23 13:57:19;;;;;;;13.48;11.15;;;;;;;;;;5174674;28;20039;-73
2023/01/23 13:59:52;;;;;;;13.07;11.52;;;;;;;;;;5179073;28;20018;-73
2023/01/23 14:05:21;;;;;;;14.13;11.70;;;;;;;;;;5178270;28;20402;-76
2023/01/23 14:08:00;;;;;;;15.02;12.57;;;;;;;;;;5178825;28;20046;-76
2023/01/23 14:10:35;;;;;;;15.82;12.18;;;;;;;;;;5178679;28;20497;-76
2023/01/23 14:13:09;;;;;;;14.77;11.52;;;;;;;;;;5178282;28;20407;-75
2023/01/23 14:18:43;;;;;;;14.95;12.00;;;;;;;;;;5178410;28;20420;-75
2023/01/23 14:21:19;;;;;;;16.08;12.40;;;;;;;;;;5178697;28;20022;-75
2023/01/23 14:23:51;;;;;;;12.80;10.93;;;;;;;;;;5178653;28;20025;-75
2023/01/23 14:26:26;;;;;;;14.65;12.20;;;;;;;;;;5178185;28;20042;-76
2023/01/23 14:28:59;;;;;;;13.73;11.45;;;;;;;;;;5178757;28;20019;-75
2023/01/23 14:31:34;;;;;;;15.50;13.15;;;;;;;;;;5178415;28;20079;-76
2023/01/23 14:34:13;;;;;;;14.25;11.82;;;;;;;;;;5178015;28;20019;-76
2023/01/23 14:36:45;;;;;;;14.90;12.13;;;;;;;;;;5178761;28;20046;-77
2023/01/23 14:39:21;;;;;;;16.75;13.02;;;;;;;;;;5177959;28;20026;-75
2023/01/23 14:41:53;;;;;;;15.45;12.65;;;;;;;;;;5177985;28;20027;-75
2023/01/23 14:44:37;;;;;;;15.38;12.90;;;;;;;;;;5178069;28;20071;-75
2023/01/23 14:47:13;;;;;;;14.35;12.35;;;;;;;;;;5177406;28;20031;-75
2023/01/23 14:49:44;;;;;;;13.40;11.23;;;;;;;;;;5178240;28;20643;-75
2023/01/23 14:52:27;;;;;;;16.42;11.18;;;;;;;;;;5177921;28;20031;-74
2023/01/23 14:54:59;;;;;;;13.80;12.10;;;;;;;;;;5177647;28;20352;-75
2023/01/23 14:57:30;;;;;;;14.02;11.13;;;;;;;;;;5177714;28;20106;-75
2023/01/23 15:00:02;;;;;;;15.07;12.13;;;;;;;;;;5176947;28;20023;-75
2023/01/23 15:02:34;;;;;;;15.57;12.32;;;;;;;;;;5177486;28;20054;-75
2023/01/23 15:05:17;;;;;;;15.88;12.95;;;;;;;;;;5177611;28;20030;-75
2023/01/23 15:08:06;;;;;;;15.00;12.38;;;;;;;;;;5177259;28;20118;-74
2023/01/23 15:10:40;;;;;;;15.70;11.88;;;;;;;;;;5177701;28;20470;-74
2023/01/23 15:13:11;;;;;;;15.52;13.02;;;;;;;;;;5177573;28;20131;-74
2023/01/23 15:15:48;;;;;;;13.10;11.30;;;;;;;;;;5176650;28;20215;-75
2023/01/23 15:18:26;;;;;;;13.05;11.65;;;;;;;;;;5177561;28;20106;-75
2023/01/23 15:20:57;;;;;;;14.73;11.55;;;;;;;;;;5177476;28;20105;-74
2023/01/23 15:23:30;;;;;;;14.75;12.50;;;;;;;;;;5176922;28;20042;-75
2023/01/23 15:26:10;;;;;;;14.48;12.30;;;;;;;;;;5177610;28;20023;-74
2023/01/23 15:28:47;;;;;;;16.52;12.70;;;;;;;;;;5176833;28;20358;-75
2023/01/23 15:31:24;;;;;;;15.68;12.55;;;;;;;;;;5177490;28;20027;-74